createdAt,value
2017-09-17T00:00:55.054Z,9.20
2017-09-17T00:03:23.979Z,9.20
2017-09-17T00:05:53.700Z,9.10
2017-09-17T00:08:21.797Z,9.10
2017-09-17T00:10:49.946Z,9.10
2017-09-17T00:13:18.641Z,9.10
2017-09-17T00:15:46.776Z,9.00
2017-09-17T00:18:14.908Z,9.10
2017-09-17T00:20:43.160Z,9.20
2017-09-17T00:23:12.155Z,9.20
2017-09-17T00:25:40.273Z,9.00
2017-09-17T00:28:09.573Z,9.10
2017-09-17T00:30:37.922Z,9.00
2017-09-17T00:33:06.024Z,9.00
2017-09-17T00:35:34.274Z,9.00
2017-09-17T00:38:03.523Z,9.10
2017-09-17T00:40:31.598Z,9.10
2017-09-17T00:43:01.856Z,9.00
2017-09-17T00:45:29.972Z,9.00
2017-09-17T00:48:01.755Z,9.00
2017-09-17T00:50:29.842Z,9.00
2017-09-17T00:52:57.916Z,8.90
2017-09-17T00:55:27.077Z,9.00
2017-09-17T00:57:55.157Z,8.90
2017-09-17T01:00:23.236Z,8.80
2017-09-17T01:02:51.322Z,8.80
2017-09-17T01:05:22.675Z,8.70
2017-09-17T01:07:50.774Z,8.60
2017-09-17T01:10:18.868Z,8.80
2017-09-17T01:12:48.050Z,8.70
2017-09-17T01:15:16.162Z,8.70
2017-09-17T01:17:44.243Z,8.70
2017-09-17T01:20:12.975Z,8.60
2017-09-17T01:22:41.067Z,8.70
2017-09-17T01:25:09.948Z,8.70
2017-09-17T01:27:38.855Z,8.70
2017-09-17T01:30:07.705Z,8.70
2017-09-17T01:32:35.810Z,8.60
2017-09-17T01:35:03.876Z,8.70
2017-09-17T01:37:32.755Z,8.70
2017-09-17T01:40:01.615Z,8.60
2017-09-17T01:42:29.715Z,8.60
2017-09-17T01:44:57.809Z,8.50
2017-09-17T01:47:26.674Z,8.50
2017-09-17T01:49:54.755Z,8.50
2017-09-17T01:52:22.844Z,8.40
2017-09-17T01:54:52.799Z,8.30
2017-09-17T01:57:20.871Z,8.30
2017-09-17T01:59:48.975Z,8.40
2017-09-17T02:02:17.068Z,8.40
2017-09-17T02:04:45.268Z,8.50
2017-09-17T02:07:13.335Z,8.40
2017-09-17T02:09:41.449Z,8.30
2017-09-17T02:12:09.546Z,8.30
2017-09-17T02:14:37.643Z,8.40
2017-09-17T02:17:06.495Z,8.40
2017-09-17T02:19:37.724Z,8.40
2017-09-17T02:22:05.791Z,8.40
2017-09-17T02:24:33.865Z,8.30
2017-09-17T02:27:01.973Z,8.40
2017-09-17T02:29:30.051Z,8.30
2017-09-17T02:31:58.916Z,8.20
2017-09-17T02:34:27.018Z,8.20
2017-09-17T02:36:55.863Z,8.20
2017-09-17T02:39:23.949Z,8.20
2017-09-17T02:41:52.988Z,8.30
2017-09-17T02:44:21.099Z,8.30
2017-09-17T02:46:49.217Z,8.20
2017-09-17T02:49:17.302Z,8.20
2017-09-17T02:51:45.404Z,8.20
2017-09-17T02:54:13.483Z,8.30
2017-09-17T02:56:41.803Z,8.40
2017-09-17T02:59:09.864Z,8.30
2017-09-17T03:01:37.959Z,8.30
2017-09-17T03:04:06.036Z,8.20
2017-09-17T03:06:34.104Z,8.10
2017-09-17T03:09:02.220Z,8.00
2017-09-17T03:11:30.287Z,8.00
2017-09-17T03:13:58.399Z,7.90
2017-09-17T03:16:26.524Z,7.90
2017-09-17T03:18:56.890Z,8.00
2017-09-17T03:21:24.977Z,8.00
2017-09-17T03:23:53.094Z,7.90
2017-09-17T03:26:21.183Z,7.90
2017-09-17T03:28:49.255Z,8.00
2017-09-17T03:31:17.357Z,8.00
2017-09-17T03:33:45.441Z,7.80
2017-09-17T03:36:13.548Z,7.80
2017-09-17T03:38:41.628Z,7.80
2017-09-17T03:41:09.700Z,7.80
2017-09-17T03:43:39.140Z,7.80
2017-09-17T03:46:07.220Z,7.90
2017-09-17T03:48:35.335Z,7.80
2017-09-17T03:51:03.749Z,7.90
2017-09-17T03:53:31.856Z,7.90
2017-09-17T03:56:01.864Z,7.90
2017-09-17T03:58:29.935Z,7.80
2017-09-17T04:00:58.049Z,7.80
2017-09-17T04:03:26.267Z,7.80
2017-09-17T04:05:54.632Z,7.80
2017-09-17T04:08:22.764Z,7.70
2017-09-17T04:10:51.621Z,7.70
2017-09-17T04:13:19.696Z,7.80
2017-09-17T04:15:47.771Z,7.90
2017-09-17T04:18:15.863Z,7.80
2017-09-17T04:20:46.643Z,8.00
2017-09-17T04:23:14.718Z,7.90
2017-09-17T04:25:42.809Z,8.00
2017-09-17T04:28:10.872Z,7.90
2017-09-17T04:30:38.986Z,7.90
2017-09-17T04:33:07.084Z,8.00
2017-09-17T04:35:35.196Z,8.00
2017-09-17T04:38:03.268Z,8.10
2017-09-17T04:40:31.368Z,8.10
2017-09-17T04:43:00.233Z,8.20
2017-09-17T04:45:28.680Z,8.20
2017-09-17T04:47:56.788Z,8.10
2017-09-17T04:50:24.887Z,8.10
2017-09-17T04:52:52.996Z,8.20
2017-09-17T04:55:21.084Z,8.10
2017-09-17T04:57:50.273Z,8.20
2017-09-17T05:00:19.416Z,8.20
2017-09-17T05:02:48.633Z,8.30
2017-09-17T05:05:17.502Z,8.20
2017-09-17T05:07:45.618Z,8.30
2017-09-17T05:10:13.711Z,8.20
2017-09-17T05:12:41.795Z,8.20
2017-09-17T05:15:09.883Z,8.30
2017-09-17T05:17:40.029Z,8.30
2017-09-17T05:20:08.889Z,8.30
2017-09-17T05:22:36.991Z,8.30
2017-09-17T05:25:05.858Z,8.30
2017-09-17T05:27:33.972Z,8.20
2017-09-17T05:30:02.092Z,8.30
2017-09-17T05:32:30.176Z,8.40
2017-09-17T05:34:58.277Z,8.40
2017-09-17T05:37:27.128Z,8.50
2017-09-17T05:39:55.231Z,8.50
2017-09-17T05:42:24.140Z,8.50
2017-09-17T05:44:52.238Z,8.50
2017-09-17T05:47:20.347Z,8.50
2017-09-17T05:49:48.419Z,8.60
2017-09-17T05:52:16.519Z,8.50
2017-09-17T05:54:45.420Z,8.60
2017-09-17T05:57:13.499Z,8.50
2017-09-17T05:59:41.604Z,8.60
2017-09-17T06:02:11.768Z,8.60
2017-09-17T06:04:40.620Z,8.70
2017-09-17T06:07:08.722Z,8.70
2017-09-17T06:09:36.827Z,8.80
2017-09-17T06:12:04.943Z,8.70
2017-09-17T06:14:33.968Z,8.80
2017-09-17T06:17:02.831Z,8.80
2017-09-17T06:19:30.935Z,8.80
2017-09-17T06:21:59.019Z,8.80
2017-09-17T06:24:27.131Z,8.90
2017-09-17T06:26:55.215Z,8.90
2017-09-17T06:29:23.324Z,8.90
2017-09-17T06:31:51.416Z,9.00
2017-09-17T06:34:19.485Z,9.00
2017-09-17T06:36:47.597Z,9.00
2017-09-17T06:39:15.692Z,9.00
2017-09-17T06:41:43.771Z,9.10
2017-09-17T06:44:11.843Z,9.10
2017-09-17T06:46:39.943Z,9.10
2017-09-17T06:49:08.055Z,9.20
2017-09-17T06:51:36.144Z,9.20
2017-09-17T06:54:04.248Z,9.20
2017-09-17T06:56:32.322Z,9.30
2017-09-17T06:59:03.197Z,9.30
2017-09-17T07:01:31.293Z,9.40
2017-09-17T07:03:59.432Z,9.50
2017-09-17T07:06:27.606Z,9.50
2017-09-17T07:08:55.769Z,9.60
2017-09-17T07:11:23.897Z,9.60
2017-09-17T07:13:52.000Z,9.60
2017-09-17T07:16:20.115Z,9.70
2017-09-17T07:18:48.285Z,9.80
2017-09-17T07:21:17.783Z,9.80
2017-09-17T07:23:45.900Z,9.90
2017-09-17T07:26:14.127Z,9.90
2017-09-17T07:28:42.254Z,9.90
2017-09-17T07:31:11.065Z,9.90
2017-09-17T07:33:39.980Z,9.90
2017-09-17T07:36:08.080Z,9.90
2017-09-17T07:38:36.208Z,9.90
2017-09-17T07:41:05.501Z,10.00
2017-09-17T07:43:37.224Z,10.00
2017-09-17T07:46:05.380Z,10.10
2017-09-17T07:48:33.463Z,10.10
2017-09-17T07:51:01.628Z,10.10
2017-09-17T07:53:29.896Z,10.10
2017-09-17T07:55:58.949Z,10.10
2017-09-17T07:58:27.817Z,10.10
2017-09-17T08:00:55.976Z,10.20
2017-09-17T08:03:24.157Z,10.30
2017-09-17T08:05:53.271Z,10.40
2017-09-17T08:08:22.132Z,10.40
2017-09-17T08:10:53.964Z,10.40
2017-09-17T08:13:22.952Z,10.40
2017-09-17T08:15:51.092Z,10.50
2017-09-17T08:18:19.185Z,10.40
2017-09-17T08:20:47.892Z,10.50
2017-09-17T08:23:16.400Z,10.50
2017-09-17T08:25:44.575Z,10.40
2017-09-17T08:28:12.699Z,10.40
2017-09-17T08:30:42.475Z,10.50
2017-09-17T08:33:11.960Z,10.50
2017-09-17T08:35:40.906Z,10.60
2017-09-17T08:38:09.145Z,10.60
2017-09-17T08:40:37.257Z,10.70
2017-09-17T08:43:05.662Z,10.70
2017-09-17T08:45:34.058Z,10.70
2017-09-17T08:48:03.692Z,10.70
2017-09-17T08:50:31.809Z,10.80
2017-09-17T08:53:00.101Z,10.80
2017-09-17T08:55:28.224Z,10.90
2017-09-17T08:57:58.115Z,10.90
2017-09-17T09:00:28.384Z,11.00
2017-09-17T09:02:56.508Z,11.00
2017-09-17T09:05:24.833Z,11.10
2017-09-17T09:07:53.357Z,11.10
2017-09-17T09:10:22.328Z,11.10
2017-09-17T09:12:50.523Z,11.10
2017-09-17T09:15:18.651Z,11.20
2017-09-17T09:17:47.097Z,11.20
2017-09-17T09:20:17.220Z,11.30
2017-09-17T09:22:46.421Z,11.30
2017-09-17T09:25:19.877Z,11.30
2017-09-17T09:27:48.044Z,11.40
2017-09-17T09:30:16.210Z,11.30
2017-09-17T09:32:44.515Z,11.30
2017-09-17T09:35:21.643Z,11.30
2017-09-17T09:37:50.708Z,11.40
2017-09-17T09:40:19.889Z,11.40
2017-09-17T09:42:51.501Z,11.40
2017-09-17T09:45:19.697Z,11.40
2017-09-17T09:47:48.713Z,11.50
2017-09-17T09:50:16.836Z,11.50
2017-09-17T09:52:45.172Z,11.60
2017-09-17T09:55:18.777Z,11.60
2017-09-17T09:57:47.963Z,11.70
2017-09-17T10:00:23.835Z,11.70
2017-09-17T10:02:54.000Z,11.70
2017-09-17T10:08:36.725Z,11.80
2017-09-17T10:11:35.491Z,11.80
2017-09-17T10:17:06.019Z,11.80
2017-09-17T10:19:34.647Z,12.00
2017-09-17T10:22:03.369Z,12.00
2017-09-17T10:24:34.367Z,12.10
2017-09-17T10:27:04.173Z,12.00
2017-09-17T10:29:32.444Z,12.10
2017-09-17T10:32:00.548Z,12.10
2017-09-17T10:34:28.822Z,12.20
2017-09-17T10:37:01.220Z,12.30
2017-09-17T10:39:33.806Z,12.30
2017-09-17T10:42:02.313Z,12.40
2017-09-17T10:44:30.880Z,12.40
2017-09-17T10:46:59.624Z,12.50
2017-09-17T10:49:27.733Z,12.60
2017-09-17T10:51:55.963Z,12.60
2017-09-17T10:54:26.265Z,12.60
2017-09-17T10:56:54.987Z,12.70
2017-09-17T10:59:23.901Z,12.70
2017-09-17T11:01:52.050Z,12.70
2017-09-17T11:04:20.279Z,12.70
2017-09-17T11:06:48.906Z,12.70
2017-09-17T11:09:17.437Z,12.60
2017-09-17T11:11:45.729Z,12.70
2017-09-17T11:14:14.808Z,12.70
2017-09-17T11:16:44.333Z,12.80
2017-09-17T11:19:12.633Z,12.70
2017-09-17T11:21:40.845Z,12.70
2017-09-17T11:24:09.789Z,12.80
2017-09-17T11:26:38.229Z,12.90
2017-09-17T11:29:07.237Z,13.00
2017-09-17T11:31:36.221Z,13.10
2017-09-17T11:34:04.396Z,13.10
2017-09-17T11:36:32.818Z,13.00
2017-09-17T11:39:01.742Z,13.10
2017-09-17T11:41:29.892Z,13.10
2017-09-17T11:43:58.886Z,13.20
2017-09-17T11:46:28.007Z,13.50
2017-09-17T11:49:00.915Z,13.60
2017-09-17T11:51:29.855Z,13.70
2017-09-17T11:53:58.221Z,13.90
2017-09-17T11:56:26.617Z,13.90
2017-09-17T11:58:54.831Z,14.00
2017-09-17T12:01:24.558Z,13.90
2017-09-17T12:03:53.058Z,13.80
2017-09-17T12:06:22.255Z,13.90
2017-09-17T12:08:50.498Z,14.00
2017-09-17T12:11:18.625Z,14.20
2017-09-17T12:13:47.514Z,14.30
2017-09-17T12:16:16.393Z,14.50
2017-09-17T12:18:44.836Z,14.80
2017-09-17T12:21:13.185Z,14.90
2017-09-17T12:23:42.832Z,14.90
2017-09-17T12:26:11.099Z,14.90
2017-09-17T12:28:39.220Z,14.90
2017-09-17T12:31:07.583Z,14.70
2017-09-17T12:33:35.710Z,14.40
2017-09-17T12:36:04.655Z,14.30
2017-09-17T12:38:33.697Z,14.20
2017-09-17T12:41:07.698Z,14.20
2017-09-17T12:43:35.840Z,14.40
2017-09-17T12:46:04.703Z,14.50
2017-09-17T12:48:32.891Z,14.30
2017-09-17T12:51:03.057Z,14.20
2017-09-17T12:53:31.220Z,14.20
2017-09-17T12:55:59.482Z,14.20
2017-09-17T12:58:27.577Z,14.30
2017-09-17T13:00:55.699Z,14.40
2017-09-17T13:03:23.962Z,14.60
2017-09-17T13:05:53.688Z,14.60
2017-09-17T13:08:22.716Z,14.60
2017-09-17T13:10:50.856Z,15.00
2017-09-17T13:13:19.016Z,15.10
2017-09-17T13:15:48.158Z,15.30
2017-09-17T13:18:16.661Z,15.10
2017-09-17T13:20:44.796Z,14.90
2017-09-17T13:23:12.903Z,14.70
2017-09-17T13:25:42.756Z,14.50
2017-09-17T13:28:10.876Z,14.50
2017-09-17T13:30:39.023Z,14.50
2017-09-17T13:33:07.192Z,14.40
2017-09-17T13:35:37.794Z,14.40
2017-09-17T13:38:05.997Z,14.40
2017-09-17T13:40:34.363Z,14.40
2017-09-17T13:43:03.410Z,14.50
2017-09-17T13:45:31.536Z,14.50
2017-09-17T13:47:59.643Z,14.60
2017-09-17T13:50:27.823Z,14.60
2017-09-17T13:52:55.937Z,14.50
2017-09-17T13:55:25.106Z,14.50
2017-09-17T13:57:53.221Z,14.30
2017-09-17T14:00:22.422Z,14.40
2017-09-17T14:02:50.537Z,14.40
2017-09-17T14:05:21.628Z,14.40
2017-09-17T14:07:55.728Z,14.40
2017-09-17T14:10:26.832Z,14.30
2017-09-17T14:12:56.941Z,14.30
2017-09-17T14:15:25.133Z,14.30
2017-09-17T14:17:53.320Z,14.40
2017-09-17T14:20:22.466Z,14.60
2017-09-17T14:22:50.616Z,14.60
2017-09-17T14:25:22.396Z,14.50
2017-09-17T14:27:50.534Z,14.50
2017-09-17T14:30:18.694Z,14.50
2017-09-17T14:32:53.440Z,14.40
2017-09-17T14:35:22.510Z,14.50
2017-09-17T14:37:50.740Z,14.50
2017-09-17T14:40:19.061Z,14.50
2017-09-17T14:42:47.480Z,14.50
2017-09-17T14:45:15.756Z,14.60
2017-09-17T14:47:44.105Z,14.60
2017-09-17T14:50:14.497Z,14.60
2017-09-17T14:52:44.460Z,14.60
2017-09-17T14:55:12.685Z,14.60
2017-09-17T14:57:40.793Z,14.60
2017-09-17T15:00:08.892Z,14.60
2017-09-17T15:02:37.079Z,14.60
2017-09-17T15:05:05.211Z,14.60
2017-09-17T15:07:34.419Z,14.60
2017-09-17T15:10:02.509Z,14.60
2017-09-17T15:12:30.608Z,14.50
2017-09-17T15:14:59.020Z,14.40
2017-09-17T15:17:28.112Z,14.40
2017-09-17T15:19:56.990Z,14.40
2017-09-17T15:22:25.848Z,14.40
2017-09-17T15:24:54.058Z,14.40
2017-09-17T15:27:22.912Z,14.30
2017-09-17T15:29:51.481Z,14.40
2017-09-17T15:32:19.760Z,14.40
2017-09-17T15:34:49.433Z,14.40
2017-09-17T15:37:18.820Z,14.30
2017-09-17T16:15:29.090Z,14.30
2017-09-17T16:17:57.246Z,14.30
2017-09-17T16:20:34.807Z,14.30
2017-09-17T16:23:05.015Z,14.30
2017-09-17T16:25:34.654Z,14.30
2017-09-17T16:28:02.943Z,14.20
2017-09-17T16:30:31.090Z,14.20
2017-09-17T16:32:59.528Z,14.20
2017-09-17T16:35:28.892Z,14.10
2017-09-17T16:37:57.853Z,14.10
2017-09-17T16:40:25.960Z,14.00
2017-09-17T16:42:54.903Z,14.00
2017-09-17T16:45:23.974Z,13.90
2017-09-17T16:47:54.397Z,13.80
2017-09-17T16:50:23.315Z,13.80
2017-09-17T16:52:51.691Z,13.60
2017-09-17T16:55:19.869Z,13.60
2017-09-17T16:57:48.873Z,13.50
2017-09-17T17:00:17.959Z,13.00
2017-09-17T17:02:46.467Z,13.30
2017-09-17T17:05:14.696Z,13.20
2017-09-17T17:07:43.176Z,13.20
2017-09-17T17:10:11.305Z,13.20
2017-09-17T17:12:39.690Z,13.10
2017-09-17T17:15:07.905Z,13.10
2017-09-17T17:17:35.997Z,12.90
2017-09-17T17:20:04.152Z,12.80
2017-09-17T17:22:32.377Z,12.90
2017-09-17T17:25:02.767Z,12.90
2017-09-17T17:27:31.003Z,12.90
2017-09-17T17:29:59.116Z,12.70
2017-09-17T17:32:27.239Z,12.70
2017-09-17T17:34:55.354Z,12.60
2017-09-17T17:37:23.478Z,12.60
2017-09-17T17:39:52.167Z,12.50
2017-09-17T17:42:20.376Z,12.50
2017-09-17T17:44:48.510Z,12.40
2017-09-17T17:47:17.432Z,12.40
2017-09-17T17:49:46.668Z,12.30
2017-09-17T17:52:14.791Z,12.20
2017-09-17T17:54:42.915Z,12.10
2017-09-17T17:57:11.056Z,12.20
2017-09-17T17:59:39.388Z,12.10
2017-09-17T18:02:07.520Z,12.10
2017-09-17T18:04:36.767Z,12.00
2017-09-17T18:07:04.879Z,12.20
2017-09-17T18:09:33.088Z,12.20
2017-09-17T18:12:01.971Z,12.20
2017-09-17T18:14:30.894Z,12.20
2017-09-17T18:16:59.137Z,12.20
2017-09-17T18:19:28.089Z,12.20
2017-09-17T18:21:56.231Z,11.90
2017-09-17T18:24:24.363Z,11.90
2017-09-17T18:26:53.852Z,12.10
2017-09-17T18:29:21.957Z,12.10
2017-09-17T18:31:50.449Z,12.10
2017-09-17T18:34:19.400Z,12.10
2017-09-17T18:36:47.807Z,12.00
2017-09-17T18:39:18.697Z,11.80
2017-09-17T18:41:46.986Z,11.70
2017-09-17T18:44:16.966Z,11.70
2017-09-17T18:46:46.653Z,11.70
2017-09-17T18:49:17.437Z,11.60
2017-09-17T18:51:47.944Z,11.60
2017-09-17T18:54:17.182Z,11.50
2017-09-17T18:56:46.503Z,11.40
2017-09-17T18:59:16.861Z,11.30
2017-09-17T19:01:47.036Z,11.10
2017-09-17T19:04:15.507Z,11.20
2017-09-17T19:06:44.131Z,11.10
2017-09-17T19:09:14.290Z,11.20
2017-09-17T19:11:42.902Z,11.20
2017-09-17T19:14:12.897Z,11.10
2017-09-17T19:16:42.045Z,11.00
2017-09-17T19:19:10.938Z,11.00
2017-09-17T19:21:40.016Z,11.10
2017-09-17T19:24:08.219Z,11.10
2017-09-17T19:26:40.621Z,11.00
2017-09-17T19:29:09.989Z,11.00
2017-09-17T19:31:47.903Z,10.90
2017-09-17T19:34:17.632Z,10.60
2017-09-17T19:36:46.035Z,10.60
2017-09-17T19:39:14.372Z,10.60
2017-09-17T19:41:42.693Z,10.50
2017-09-17T19:44:10.841Z,10.60
2017-09-17T19:46:39.272Z,10.50
2017-09-17T19:49:07.507Z,10.60
2017-09-17T19:51:36.549Z,10.70
2017-09-17T19:54:04.754Z,10.60
2017-09-17T19:56:38.413Z,10.40
2017-09-17T19:59:07.578Z,10.30
2017-09-17T20:01:38.540Z,10.30
2017-09-17T20:04:07.572Z,10.20
2017-09-17T20:06:40.104Z,10.10
2017-09-17T20:09:10.301Z,10.00
2017-09-17T20:11:39.861Z,10.00
2017-09-17T20:14:08.115Z,10.10
2017-09-17T20:16:39.325Z,10.10
2017-09-17T20:19:08.728Z,10.20
2017-09-17T20:21:37.823Z,10.20
2017-09-17T20:24:06.076Z,10.10
2017-09-17T20:26:34.241Z,10.10
2017-09-17T20:29:03.114Z,10.20
2017-09-17T20:31:31.327Z,10.20
2017-09-17T20:33:59.889Z,10.00
2017-09-17T20:36:28.748Z,9.90
2017-09-17T20:38:59.316Z,9.90
2017-09-17T20:41:27.757Z,10.00
2017-09-17T20:43:55.905Z,10.00
2017-09-17T20:46:26.211Z,9.70
2017-09-17T20:48:54.374Z,9.60
2017-09-17T21:19:05.343Z,9.50
2017-09-17T21:21:35.540Z,9.30
2017-09-17T21:24:04.541Z,9.40
2017-09-17T21:26:32.838Z,9.20
2017-09-17T21:29:01.001Z,9.30
2017-09-17T21:31:30.074Z,9.40
2017-09-17T21:34:01.850Z,9.40
2017-09-17T21:36:36.789Z,9.40
2017-09-17T21:39:05.947Z,9.40
2017-09-17T21:41:38.460Z,9.30
2017-09-17T21:44:06.572Z,9.30
2017-09-17T21:46:35.010Z,9.20
2017-09-17T21:49:03.128Z,9.30
2017-09-17T21:51:31.216Z,9.10
2017-09-17T21:54:00.257Z,9.00
2017-09-17T21:56:28.349Z,9.00
2017-09-17T21:58:56.460Z,9.20
2017-09-17T22:01:24.587Z,9.20
2017-09-17T22:03:52.695Z,9.10
2017-09-17T22:06:20.881Z,9.10
2017-09-17T22:08:49.004Z,9.00
2017-09-17T22:11:18.074Z,9.00
2017-09-17T22:13:46.170Z,9.10
2017-09-17T22:16:14.276Z,9.20
2017-09-17T22:18:43.477Z,9.00
2017-09-17T22:21:11.560Z,9.10
2017-09-17T22:23:39.681Z,9.10
2017-09-17T22:26:07.787Z,9.00
2017-09-17T22:28:35.880Z,9.10
2017-09-17T22:31:04.020Z,9.10
2017-09-17T22:33:33.189Z,9.20
2017-09-17T22:36:02.107Z,9.20
2017-09-17T22:38:31.157Z,9.10
2017-09-17T22:41:00.040Z,8.90
2017-09-17T22:43:28.296Z,9.00
2017-09-17T22:45:56.393Z,8.90
2017-09-17T22:48:25.332Z,8.50
2017-09-17T22:50:53.823Z,8.60
2017-09-17T22:53:21.938Z,8.60
2017-09-17T22:55:50.016Z,8.60
2017-09-17T22:58:18.926Z,8.50
2017-09-17T23:00:47.024Z,8.70
2017-09-17T23:03:15.482Z,8.70
2017-09-17T23:05:43.650Z,8.80
2017-09-17T23:08:11.768Z,8.80
2017-09-17T23:10:39.917Z,8.80
2017-09-17T23:13:08.017Z,8.80
2017-09-17T23:15:36.110Z,8.70
2017-09-17T23:18:04.218Z,8.80
2017-09-17T23:20:32.413Z,8.50
2017-09-17T23:23:00.530Z,8.50
2017-09-17T23:25:28.639Z,8.60
2017-09-17T23:27:56.752Z,8.50
2017-09-17T23:30:24.850Z,8.70
2017-09-17T23:32:53.759Z,8.70
2017-09-17T23:35:21.849Z,8.70
2017-09-17T23:37:49.961Z,8.90
2017-09-17T23:40:18.193Z,9.00
2017-09-17T23:42:46.275Z,8.80
2017-09-17T23:45:15.224Z,8.60
2017-09-17T23:47:44.074Z,8.50
2017-09-17T23:50:12.201Z,8.40
2017-09-17T23:52:40.316Z,8.60
2017-09-17T23:55:08.388Z,8.50
2017-09-17T23:57:36.701Z,8.60
